createdAt,value
2018-12-03T00:00:25.894Z,9.07
2018-12-03T00:02:57.761Z,6.57
2018-12-03T00:05:26.311Z,8.90
2018-12-03T00:07:54.778Z,3.13
2018-12-03T00:10:23.236Z,5.80
2018-12-03T00:12:53.649Z,4.93
2018-12-03T00:15:22.098Z,5.43
2018-12-03T00:17:50.535Z,3.73
2018-12-03T00:20:19.035Z,5.23
2018-12-03T00:22:47.446Z,3.83
2018-12-03T00:25:15.875Z,2.63
2018-12-03T00:27:51.475Z,1.87
2018-12-03T00:30:20.267Z,6.47
2018-12-03T00:32:48.788Z,2.43
2018-12-03T00:35:17.229Z,2.70
2018-12-03T00:41:43.090Z,8.10
2018-12-03T00:44:13.514Z,4.90
2018-12-03T00:47:06.807Z,4.10
2018-12-03T00:49:36.878Z,7.00
2018-12-03T00:52:08.495Z,3.93
2018-12-03T00:54:41.571Z,5.30
2018-12-03T00:57:12.053Z,3.33
2018-12-03T00:59:42.731Z,6.23
2018-12-03T01:02:28.304Z,2.93
2018-12-03T01:04:59.461Z,3.13
2018-12-03T01:07:30.028Z,4.17
2018-12-03T01:10:00.446Z,5.10
2018-12-03T01:12:30.922Z,2.50
2018-12-03T01:15:02.044Z,7.23
2018-12-03T01:17:32.743Z,3.30
2018-12-03T01:20:03.012Z,6.07
2018-12-03T01:22:33.532Z,3.93
2018-12-03T01:25:04.622Z,5.03
2018-12-03T01:27:35.129Z,11.77
2018-12-03T01:30:05.832Z,4.00
2018-12-03T01:32:36.935Z,3.83
2018-12-03T01:35:11.279Z,6.50
2018-12-03T01:37:42.398Z,2.83
2018-12-03T01:40:16.011Z,5.87
2018-12-03T01:42:47.629Z,4.87
2018-12-03T01:45:19.309Z,4.00
2018-12-03T01:47:50.230Z,4.10
2018-12-03T01:50:21.401Z,5.07
2018-12-03T01:52:52.609Z,8.50
2018-12-03T01:55:23.775Z,3.87
2018-12-03T01:57:54.681Z,6.13
2018-12-03T02:00:25.631Z,7.53
2018-12-03T02:02:56.368Z,4.93
2018-12-03T02:05:27.336Z,9.23
2018-12-03T02:07:58.152Z,6.83
2018-12-03T02:10:29.097Z,7.10
2018-12-03T02:12:59.550Z,18.37
2018-12-03T02:15:30.278Z,10.83
2018-12-03T02:18:00.505Z,14.00
2018-12-03T02:20:31.297Z,9.77
2018-12-03T02:23:02.467Z,12.43
2018-12-03T02:25:33.594Z,8.50
2018-12-03T02:28:04.109Z,11.53
2018-12-03T02:30:34.542Z,15.13
2018-12-03T02:33:05.698Z,16.33
2018-12-03T02:35:36.432Z,5.80
2018-12-03T02:38:06.288Z,7.43
2018-12-03T02:40:37.558Z,8.63
2018-12-03T02:43:08.674Z,9.27
2018-12-03T02:45:39.100Z,13.00
2018-12-03T02:48:09.653Z,12.33
2018-12-03T02:50:40.063Z,8.53
2018-12-03T02:53:11.538Z,9.37
2018-12-03T02:55:42.399Z,12.13
2018-12-03T02:58:13.345Z,10.53
2018-12-03T03:00:43.985Z,15.17
2018-12-03T03:03:14.816Z,8.10
2018-12-03T03:05:46.161Z,10.37
2018-12-03T03:08:17.415Z,17.97
2018-12-03T03:10:47.935Z,9.83
2018-12-03T03:13:18.518Z,10.50
2018-12-03T03:15:50.375Z,11.47
2018-12-03T03:18:20.508Z,8.30
2018-12-03T03:20:53.536Z,10.73
2018-12-03T03:23:24.740Z,15.93
2018-12-03T03:25:55.525Z,14.23
2018-12-03T03:28:26.756Z,15.43
2018-12-03T03:30:57.960Z,15.13
2018-12-03T03:33:28.884Z,11.87
2018-12-03T03:35:58.966Z,10.77
2018-12-03T03:38:29.752Z,9.17
2018-12-03T03:41:01.501Z,12.20
2018-12-03T03:43:32.377Z,6.63
2018-12-03T03:46:03.177Z,10.33
2018-12-03T03:48:33.885Z,13.80
2018-12-03T03:51:04.742Z,8.10
2018-12-03T03:53:35.139Z,9.10
2018-12-03T03:56:06.046Z,12.13
2018-12-03T03:58:36.567Z,10.70
2018-12-03T04:01:06.941Z,18.03
2018-12-03T04:03:38.704Z,7.33
2018-12-03T04:06:08.883Z,8.90
2018-12-03T04:08:40.095Z,6.03
2018-12-03T04:11:10.445Z,8.93
2018-12-03T04:13:40.885Z,5.60
2018-12-03T04:16:11.001Z,5.53
2018-12-03T04:18:41.549Z,10.83
2018-12-03T04:21:12.359Z,10.30
2018-12-03T04:23:43.087Z,4.13
2018-12-03T04:26:13.610Z,5.77
2018-12-03T04:28:44.214Z,7.67
2018-12-03T04:31:15.198Z,3.50
2018-12-03T04:33:47.828Z,5.47
2018-12-03T04:36:18.691Z,4.80
2018-12-03T04:38:49.798Z,5.27
2018-12-03T04:41:21.706Z,6.80
2018-12-03T04:43:52.730Z,4.10
2018-12-03T04:46:23.590Z,7.73
2018-12-03T04:48:54.798Z,4.80
2018-12-03T04:51:25.352Z,2.97
2018-12-03T04:53:55.722Z,4.90
2018-12-03T04:56:27.324Z,2.50
2018-12-03T04:58:59.477Z,4.10
2018-12-03T05:01:30.743Z,4.10
2018-12-03T05:04:01.403Z,1.67
2018-12-03T05:06:31.973Z,2.90
2018-12-03T05:09:02.458Z,6.07
2018-12-03T05:11:33.338Z,3.23
2018-12-03T05:14:03.816Z,5.70
2018-12-03T05:16:34.598Z,1.73
2018-12-03T05:19:05.155Z,2.70
2018-12-03T05:21:35.711Z,3.23
2018-12-03T05:24:06.810Z,4.90
2018-12-03T05:26:37.286Z,5.73
2018-12-03T05:29:08.289Z,3.30
2018-12-03T05:31:39.214Z,3.43
2018-12-03T05:34:10.398Z,4.80
2018-12-03T05:36:41.199Z,3.30
2018-12-03T05:39:12.329Z,3.40
2018-12-03T05:41:42.711Z,3.83
2018-12-03T05:44:16.106Z,3.63
2018-12-03T05:46:46.852Z,3.53
2018-12-03T05:49:19.770Z,4.17
2018-12-03T05:51:50.571Z,4.83
2018-12-03T05:54:20.803Z,4.50
2018-12-03T05:56:51.632Z,10.23
2018-12-03T05:59:22.378Z,5.60
2018-12-03T06:01:53.117Z,8.00
2018-12-03T06:04:24.618Z,6.60
2018-12-03T06:06:55.381Z,5.27
2018-12-03T06:09:25.970Z,5.57
2018-12-03T06:11:57.210Z,5.70
2018-12-03T06:14:27.068Z,4.07
2018-12-03T06:16:58.142Z,4.17
2018-12-03T06:19:28.268Z,4.97
2018-12-03T06:22:00.393Z,4.10
2018-12-03T06:24:30.900Z,5.20
2018-12-03T06:27:07.005Z,8.70
2018-12-03T06:29:38.856Z,9.90
2018-12-03T06:32:09.699Z,9.00
2018-12-03T06:34:40.580Z,9.20
2018-12-03T06:37:11.732Z,12.53
2018-12-03T06:39:42.591Z,12.20
2018-12-03T06:42:13.299Z,8.13
2018-12-03T06:44:44.650Z,10.57
2018-12-03T06:47:16.315Z,7.53
2018-12-03T06:49:47.193Z,6.97
2018-12-03T06:52:17.674Z,9.27
2018-12-03T06:54:49.346Z,9.63
2018-12-03T06:57:20.024Z,5.50
2018-12-03T06:59:50.897Z,8.07
2018-12-03T07:02:21.690Z,8.43
2018-12-03T07:04:52.468Z,7.30
2018-12-03T07:07:24.386Z,6.60
2018-12-03T07:09:55.181Z,24.93
2018-12-03T07:12:26.580Z,9.10
2018-12-03T07:14:57.453Z,7.10
2018-12-03T07:17:28.046Z,8.67
2018-12-03T07:19:59.232Z,6.47
2018-12-03T07:22:30.665Z,8.50
2018-12-03T07:25:02.337Z,8.60
2018-12-03T07:27:32.835Z,6.00
2018-12-03T07:30:05.891Z,12.87
2018-12-03T07:32:36.363Z,13.43
2018-12-03T07:35:07.114Z,12.23
2018-12-03T07:37:37.618Z,8.23
2018-12-03T07:40:09.561Z,8.40
2018-12-03T07:42:41.053Z,13.13
2018-12-03T07:45:21.353Z,9.20
2018-12-03T07:47:52.152Z,7.53
2018-12-03T07:50:23.901Z,12.97
2018-12-03T07:52:55.247Z,11.30
2018-12-03T07:55:28.100Z,12.67
2018-12-03T07:58:08.361Z,12.90
2018-12-03T08:00:49.934Z,22.60
2018-12-03T08:03:20.148Z,16.67
2018-12-03T08:05:51.949Z,15.43
2018-12-03T08:08:23.902Z,13.73
2018-12-03T08:10:59.101Z,18.53
2018-12-03T08:13:30.368Z,11.57
2018-12-03T08:16:00.932Z,11.20
2018-12-03T08:18:34.094Z,12.00
2018-12-03T08:21:13.719Z,10.43
2018-12-03T08:24:05.982Z,12.73
2018-12-03T08:26:36.578Z,11.93
2018-12-03T08:29:08.091Z,13.37
2018-12-03T08:31:39.286Z,9.80
2018-12-03T08:34:09.795Z,14.13
2018-12-03T08:36:41.036Z,12.80
2018-12-03T08:39:13.535Z,12.10
2018-12-03T08:41:45.377Z,10.10
2018-12-03T08:44:16.370Z,11.83
2018-12-03T08:46:49.169Z,13.30
2018-12-03T08:49:19.449Z,15.30
2018-12-03T08:51:50.339Z,18.27
2018-12-03T08:54:20.857Z,21.43
2018-12-03T08:56:51.787Z,18.20
2018-12-03T08:59:22.347Z,16.30
2018-12-03T09:01:53.574Z,13.37
2018-12-03T09:04:24.564Z,19.43
2018-12-03T09:06:55.281Z,13.80
2018-12-03T09:09:26.630Z,16.30
2018-12-03T09:11:57.504Z,19.93
2018-12-03T09:14:30.889Z,21.53
2018-12-03T09:17:02.583Z,22.90
2018-12-03T09:19:32.929Z,24.07
2018-12-03T09:22:04.201Z,16.50
2018-12-03T09:24:34.953Z,17.10
2018-12-03T09:27:06.409Z,25.83
2018-12-03T09:29:36.823Z,22.70
2018-12-03T09:32:07.325Z,20.00
2018-12-03T09:34:39.311Z,16.37
2018-12-03T09:37:10.507Z,29.07
2018-12-03T09:39:41.324Z,18.63
2018-12-03T09:42:12.308Z,16.30
2018-12-03T09:44:43.192Z,27.13
2018-12-03T09:47:13.513Z,19.90
2018-12-03T09:49:44.200Z,20.87
2018-12-03T09:52:14.569Z,10.53
2018-12-03T09:54:45.842Z,18.13
2018-12-03T09:57:15.972Z,18.13
2018-12-03T09:59:46.747Z,24.90
2018-12-03T10:02:19.740Z,26.60
2018-12-03T10:04:50.989Z,26.23
2018-12-03T10:07:22.386Z,18.07
2018-12-03T10:09:53.704Z,29.03
2018-12-03T10:12:25.768Z,27.40
2018-12-03T10:14:56.536Z,24.07
2018-12-03T10:17:27.033Z,25.80
2018-12-03T10:19:57.599Z,29.53
2018-12-03T10:22:27.795Z,20.03
2018-12-03T10:24:58.380Z,19.20
2018-12-03T10:27:30.263Z,31.93
2018-12-03T10:30:03.153Z,24.63
2018-12-03T10:32:35.086Z,26.80
2018-12-03T10:35:05.410Z,24.23
2018-12-03T10:37:35.884Z,16.27
2018-12-03T10:40:09.887Z,17.13
2018-12-03T10:42:40.261Z,18.33
2018-12-03T10:45:13.810Z,19.63
2018-12-03T10:47:43.979Z,22.10
2018-12-03T10:50:22.181Z,23.27
2018-12-03T10:52:51.514Z,18.07
2018-12-03T10:55:21.940Z,18.60
2018-12-03T10:57:52.891Z,25.57
2018-12-03T11:00:40.434Z,24.00
2018-12-03T11:03:49.901Z,18.77
2018-12-03T11:06:21.980Z,19.97
2018-12-03T11:08:52.982Z,14.13
2018-12-03T11:11:23.616Z,21.33
2018-12-03T11:13:57.419Z,18.97
2018-12-03T11:16:31.714Z,16.67
2018-12-03T11:19:02.769Z,23.50
2018-12-03T11:21:33.738Z,17.07
2018-12-03T11:24:04.291Z,27.67
2018-12-03T11:26:46.253Z,19.13
2018-12-03T11:29:17.271Z,22.17
2018-12-03T11:31:48.469Z,16.90
2018-12-03T11:34:25.491Z,20.73
2018-12-03T11:37:05.500Z,15.67
2018-12-03T11:39:57.533Z,18.43
2018-12-03T11:42:32.906Z,23.53
2018-12-03T11:45:04.045Z,22.40
2018-12-03T11:47:34.440Z,17.90
2018-12-03T11:50:05.105Z,15.30
2018-12-03T11:52:35.628Z,19.03
2018-12-03T11:55:06.707Z,14.83
2018-12-03T11:57:36.775Z,17.60
2018-12-03T12:00:09.966Z,18.47
2018-12-03T12:02:40.782Z,10.57
2018-12-03T12:05:11.567Z,18.43
2018-12-03T12:07:42.594Z,20.30
2018-12-03T12:10:14.644Z,20.03
2018-12-03T12:12:45.722Z,18.50
2018-12-03T12:15:16.223Z,32.23
2018-12-03T12:17:47.125Z,20.00
2018-12-03T12:20:17.689Z,20.53
2018-12-03T12:22:48.103Z,15.27
2018-12-03T12:25:18.754Z,14.20
2018-12-03T12:27:57.555Z,13.90
2018-12-03T12:30:28.054Z,17.87
2018-12-03T12:32:58.897Z,16.73
2018-12-03T12:35:29.488Z,17.30
2018-12-03T12:37:59.671Z,25.93
2018-12-03T12:40:30.184Z,19.23
2018-12-03T12:43:01.054Z,26.47
2018-12-03T12:45:43.190Z,17.23
2018-12-03T12:48:13.622Z,17.93
2018-12-03T12:50:44.825Z,17.17
2018-12-03T12:53:15.765Z,11.93
2018-12-03T12:55:47.035Z,16.67
2018-12-03T12:58:17.328Z,21.50
2018-12-03T13:00:48.167Z,20.30
2018-12-03T13:03:18.772Z,18.30
2018-12-03T13:05:51.556Z,25.00
2018-12-03T13:08:21.959Z,17.97
2018-12-03T13:10:52.438Z,28.23
2018-12-03T13:13:23.148Z,13.57
2018-12-03T13:15:53.802Z,17.90
2018-12-03T13:18:24.237Z,20.07
2018-12-03T13:20:54.532Z,14.07
2018-12-03T13:23:24.958Z,14.10
2018-12-03T13:25:55.428Z,16.30
2018-12-03T13:28:25.509Z,13.47
2018-12-03T13:30:56.354Z,14.00
2018-12-03T13:33:27.306Z,17.73
2018-12-03T13:35:57.916Z,15.93
2018-12-03T13:38:28.340Z,14.37
2018-12-03T13:40:59.772Z,18.30
2018-12-03T13:43:30.730Z,26.43
2018-12-03T13:46:02.418Z,20.47
2018-12-03T13:48:32.889Z,10.70
2018-12-03T13:51:04.076Z,12.47
2018-12-03T13:53:34.914Z,11.00
2018-12-03T13:56:05.964Z,11.23
2018-12-03T13:58:36.333Z,9.13
2018-12-03T14:01:07.414Z,18.83
2018-12-03T14:03:38.995Z,18.13
2018-12-03T14:06:27.951Z,11.40
2018-12-03T14:09:22.709Z,16.17
2018-12-03T14:12:11.592Z,8.73
2018-12-03T14:15:26.853Z,11.90
2018-12-03T14:18:31.130Z,19.03
2018-12-03T14:21:25.268Z,17.23
2018-12-03T14:23:57.353Z,15.10
2018-12-03T14:26:27.974Z,11.47
2018-12-03T14:28:58.958Z,12.53
2018-12-03T14:31:29.622Z,16.30
2018-12-03T14:34:01.048Z,12.80
2018-12-03T14:36:32.262Z,12.80
2018-12-03T14:39:07.803Z,10.77
2018-12-03T14:41:38.385Z,16.20
2018-12-03T14:44:08.498Z,13.30
2018-12-03T14:46:39.324Z,12.40
2018-12-03T14:49:10.143Z,10.23
2018-12-03T14:51:41.007Z,11.63
2018-12-03T14:54:11.466Z,13.40
2018-12-03T14:56:44.934Z,9.13
2018-12-03T14:59:15.770Z,13.43
2018-12-03T15:01:46.290Z,14.27
2018-12-03T15:04:16.762Z,13.07
2018-12-03T15:06:49.992Z,18.63
2018-12-03T15:09:20.570Z,19.83
2018-12-03T15:11:50.784Z,11.20
2018-12-03T15:14:21.217Z,13.87
2018-12-03T15:16:51.388Z,17.17
2018-12-03T15:19:22.658Z,8.07
2018-12-03T15:21:53.881Z,10.30
2018-12-03T15:24:24.397Z,11.83
2018-12-03T15:26:54.971Z,11.60
2018-12-03T15:29:26.036Z,19.70
2018-12-03T15:31:56.615Z,13.00
2018-12-03T15:34:27.100Z,16.83
2018-12-03T15:36:57.591Z,15.17
2018-12-03T15:39:29.047Z,13.67
2018-12-03T15:41:59.220Z,18.73
2018-12-03T15:44:30.064Z,14.77
2018-12-03T15:47:01.235Z,19.63
2018-12-03T15:49:31.674Z,16.17
2018-12-03T15:52:02.117Z,19.03
2018-12-03T15:54:33.141Z,16.07
2018-12-03T15:57:04.121Z,20.43
2018-12-03T15:59:34.854Z,10.23
2018-12-03T16:02:05.389Z,11.77
2018-12-03T16:04:36.324Z,13.30
2018-12-03T16:07:08.960Z,12.80
2018-12-03T16:09:39.860Z,10.33
2018-12-03T16:12:10.371Z,8.10
2018-12-03T16:14:40.983Z,10.13
2018-12-03T16:17:11.487Z,5.70
2018-12-03T16:19:42.539Z,22.10
2018-12-03T16:22:13.136Z,10.43
2018-12-03T16:24:43.574Z,6.33
2018-12-03T16:27:14.262Z,3.70
2018-12-03T16:29:44.791Z,6.40
2018-12-03T16:32:15.740Z,16.53
2018-12-03T16:34:45.899Z,7.17
2018-12-03T16:37:17.087Z,4.50
2018-12-03T16:39:48.033Z,4.40
2018-12-03T16:42:18.663Z,5.77
2018-12-03T16:44:49.714Z,5.90
2018-12-03T16:47:20.265Z,9.90
2018-12-03T16:49:51.180Z,6.30
2018-12-03T16:52:22.547Z,5.40
2018-12-03T16:54:53.440Z,6.83
2018-12-03T16:57:23.603Z,1.90
2018-12-03T16:59:54.137Z,3.47
2018-12-03T17:02:25.061Z,5.10
2018-12-03T17:04:56.107Z,5.80
2018-12-03T17:07:27.546Z,5.30
2018-12-03T17:10:00.360Z,3.90
2018-12-03T17:12:32.021Z,4.67
2018-12-03T17:15:02.910Z,11.53
2018-12-03T17:17:34.130Z,10.20
2018-12-03T17:20:05.700Z,8.63
2018-12-03T17:23:32.037Z,8.33
2018-12-03T17:26:02.796Z,5.50
2018-12-03T17:28:33.664Z,7.93
2018-12-03T17:31:04.804Z,13.57
2018-12-03T17:33:35.415Z,13.93
2018-12-03T17:36:06.105Z,11.07
2018-12-03T17:38:36.355Z,18.20
2018-12-03T17:41:07.808Z,10.77
2018-12-03T17:43:41.092Z,8.53
2018-12-03T17:46:11.602Z,12.80
2018-12-03T17:48:42.426Z,10.63
2018-12-03T17:51:12.890Z,14.97
2018-12-03T17:53:43.787Z,17.20
2018-12-03T17:56:14.465Z,14.17
2018-12-03T17:58:44.244Z,9.90
2018-12-03T18:01:14.700Z,15.40
2018-12-03T18:03:45.216Z,19.00
2018-12-03T18:06:17.176Z,8.20
2018-12-03T18:08:48.447Z,12.30
2018-12-03T18:11:30.586Z,12.90
2018-12-03T18:14:01.503Z,11.10
2018-12-03T18:16:32.264Z,8.83
2018-12-03T18:19:02.811Z,13.13
2018-12-03T18:21:33.651Z,13.30
2018-12-03T18:24:04.045Z,11.03
2018-12-03T18:26:35.357Z,17.03
2018-12-03T18:29:22.288Z,12.47
2018-12-03T18:31:41.985Z,9.23
2018-12-03T18:34:13.063Z,12.13
2018-12-03T18:36:44.107Z,13.87
2018-12-03T18:39:15.467Z,7.20
2018-12-03T18:41:46.102Z,9.90
2018-12-03T18:44:17.707Z,17.07
2018-12-03T18:46:49.321Z,14.67
2018-12-03T18:49:26.846Z,16.73
2018-12-03T18:51:58.141Z,10.50
2018-12-03T18:54:29.176Z,15.67
2018-12-03T18:56:59.713Z,15.47
2018-12-03T18:59:30.311Z,16.17
2018-12-03T19:02:00.815Z,10.93
2018-12-03T19:04:31.839Z,16.33
2018-12-03T19:07:02.226Z,13.33
2018-12-03T19:09:34.407Z,15.10
2018-12-03T19:12:05.729Z,15.03
2018-12-03T19:14:36.259Z,14.47
2018-12-03T19:17:07.450Z,28.33
2018-12-03T19:19:38.405Z,17.47
2018-12-03T19:22:10.029Z,21.53
2018-12-03T19:24:41.050Z,17.47
2018-12-03T19:27:12.034Z,16.03
2018-12-03T19:29:43.521Z,20.77
2018-12-03T19:32:13.617Z,21.03
2018-12-03T19:34:46.792Z,10.40
2018-12-03T19:37:17.028Z,9.70
2018-12-03T19:39:47.686Z,16.20
2018-12-03T19:42:18.891Z,18.77
2018-12-03T19:44:49.718Z,20.63
2018-12-03T19:47:20.579Z,13.33
2018-12-03T19:49:52.358Z,18.63
2018-12-03T19:52:22.935Z,15.40
2018-12-03T19:54:54.783Z,17.77
2018-12-03T19:57:28.815Z,21.07
2018-12-03T20:00:01.521Z,19.60
2018-12-03T20:02:33.279Z,19.90
2018-12-03T20:05:18.976Z,19.40
2018-12-03T20:07:49.135Z,16.13
2018-12-03T20:10:19.347Z,15.87
2018-12-03T20:12:50.390Z,15.47
2018-12-03T20:15:21.029Z,17.40
2018-12-03T20:17:52.306Z,18.63
2018-12-03T20:20:27.224Z,19.73
2018-12-03T20:23:11.575Z,13.77
2018-12-03T20:25:52.627Z,27.00
2018-12-03T20:28:32.716Z,23.20
2018-12-03T20:31:37.227Z,21.77
2018-12-03T20:34:25.415Z,19.17
2018-12-03T20:37:08.003Z,26.57
2018-12-03T20:40:03.450Z,28.40
2018-12-03T20:42:37.594Z,22.83
2018-12-03T20:45:51.351Z,20.33
2018-12-03T20:48:31.977Z,30.37
2018-12-03T20:51:14.210Z,20.60
2018-12-03T20:53:47.428Z,16.93
2018-12-03T20:56:18.788Z,26.70
2018-12-03T20:58:49.059Z,15.10
2018-12-03T21:01:19.723Z,18.20
2018-12-03T21:03:50.752Z,28.77
2018-12-03T21:06:23.212Z,21.03
2018-12-03T21:08:54.511Z,20.83
2018-12-03T21:11:24.584Z,18.37
2018-12-03T21:13:55.154Z,23.03
2018-12-03T21:16:25.948Z,19.30
2018-12-03T21:18:56.808Z,26.17
2018-12-03T21:21:28.464Z,30.30
2018-12-03T21:23:59.630Z,21.37
2018-12-03T21:26:30.604Z,22.30
2018-12-03T21:29:03.325Z,42.40
2018-12-03T21:31:34.699Z,23.23
2018-12-03T21:34:05.185Z,21.97
2018-12-03T21:36:36.055Z,24.90
2018-12-03T21:39:08.762Z,24.07
2018-12-03T21:41:39.505Z,25.80
2018-12-03T21:44:10.433Z,22.63
2018-12-03T21:46:40.894Z,22.77
2018-12-03T21:49:11.853Z,30.80
2018-12-03T21:51:42.920Z,32.00
2018-12-03T21:54:13.764Z,25.93
2018-12-03T21:56:44.669Z,24.80
2018-12-03T21:59:15.525Z,26.17
2018-12-03T22:01:46.522Z,28.93
2018-12-03T22:04:17.458Z,18.73
2018-12-03T22:06:48.594Z,24.33
2018-12-03T22:09:21.602Z,24.33
2018-12-03T22:11:52.424Z,24.83
2018-12-03T22:14:27.492Z,27.27
2018-12-03T22:16:58.969Z,22.63
2018-12-03T22:19:29.417Z,30.70
2018-12-03T22:22:00.265Z,27.33
2018-12-03T22:24:30.829Z,24.53
2018-12-03T22:27:01.479Z,35.33
2018-12-03T22:29:33.338Z,26.80
2018-12-03T22:32:07.341Z,25.03
2018-12-03T22:34:39.144Z,30.70
2018-12-03T22:37:10.416Z,31.47
2018-12-03T22:39:46.227Z,30.60
2018-12-03T22:42:13.171Z,22.40
2018-12-03T22:44:44.023Z,36.77
2018-12-03T22:47:15.382Z,27.73
2018-12-03T22:49:45.923Z,28.93
2018-12-03T22:52:17.417Z,21.30
2018-12-03T22:54:48.297Z,37.33
2018-12-03T22:57:20.334Z,27.90
2018-12-03T22:59:50.109Z,26.80
2018-12-03T23:02:23.454Z,35.27
2018-12-03T23:04:53.854Z,21.57
2018-12-03T23:07:23.681Z,28.37
2018-12-03T23:09:56.578Z,35.97
2018-12-03T23:12:30.736Z,18.40
2018-12-03T23:15:01.390Z,20.73
2018-12-03T23:17:31.644Z,25.33
2018-12-03T23:20:02.920Z,23.97
2018-12-03T23:22:35.105Z,20.30
2018-12-03T23:25:06.460Z,17.10
2018-12-03T23:27:37.301Z,19.20
2018-12-03T23:30:09.233Z,18.47
2018-12-03T23:32:40.366Z,15.23
2018-12-03T23:35:10.836Z,23.00
2018-12-03T23:37:41.413Z,19.33
2018-12-03T23:40:12.077Z,15.33
2018-12-03T23:42:42.940Z,16.80
2018-12-03T23:45:15.908Z,11.37
2018-12-03T23:47:45.974Z,14.50
2018-12-03T23:50:16.630Z,10.60
2018-12-03T23:52:47.594Z,14.27
2018-12-03T23:55:19.041Z,10.50
2018-12-03T23:57:49.492Z,9.70
